sensor_id;sensor_type;location;lat;lon;timestamp;pressure;altitude;pressure_sealevel;temperature;humidity
22000;BME280;11164;48.818;2.322;2023-02-12T00:01:45;102765.06;;;9.51;47.55
22000;BME280;11164;48.818;2.322;2023-02-12T00:04:11;102759.53;;;9.52;47.47
22000;BME280;11164;48.818;2.322;2023-02-12T00:06:37;102764.00;;;9.32;47.98
22000;BME280;11164;48.818;2.322;2023-02-12T00:09:04;102758.09;;;9.39;47.70
22000;BME280;11164;48.818;2.322;2023-02-12T00:11:29;102752.84;;;9.47;47.52
22000;BME280;11164;48.818;2.322;2023-02-12T00:13:56;102752.84;;;9.37;47.63
22000;BME280;11164;48.818;2.322;2023-02-12T00:16:24;102749.81;;;9.30;47.89
22000;BME280;11164;48.818;2.322;2023-02-12T00:18:51;102751.53;;;9.31;48.02
22000;BME280;11164;48.818;2.322;2023-02-12T00:21:17;102750.28;;;9.45;47.33
22000;BME280;11164;48.818;2.322;2023-02-12T00:23:43;102749.88;;;9.50;47.53
22000;BME280;11164;48.818;2.322;2023-02-12T00:26:11;102742.78;;;9.39;47.82
22000;BME280;11164;48.818;2.322;2023-02-12T00:28:38;102744.81;;;9.26;48.29
22000;BME280;11164;48.818;2.322;2023-02-12T00:31:14;102745.53;;;9.18;48.43
22000;BME280;11164;48.818;2.322;2023-02-12T00:33:40;102741.53;;;9.12;48.69
22000;BME280;11164;48.818;2.322;2023-02-12T00:36:07;102753.91;;;9.25;48.15
22000;BME280;11164;48.818;2.322;2023-02-12T00:38:33;102745.88;;;9.34;47.85
22000;BME280;11164;48.818;2.322;2023-02-12T00:40:58;102738.41;;;9.48;47.59
22000;BME280;11164;48.818;2.322;2023-02-12T00:43:23;102741.06;;;9.38;47.69
22000;BME280;11164;48.818;2.322;2023-02-12T00:45:49;102746.94;;;9.22;48.43
22000;BME280;11164;48.818;2.322;2023-02-12T00:48:15;102747.91;;;9.11;48.48
22000;BME280;11164;48.818;2.322;2023-02-12T00:50:40;102746.34;;;9.18;48.44
22000;BME280;11164;48.818;2.322;2023-02-12T00:53:08;102739.03;;;9.30;48.11
22000;BME280;11164;48.818;2.322;2023-02-12T00:55:33;102746.88;;;9.33;48.06
22000;BME280;11164;48.818;2.322;2023-02-12T00:57:59;102736.25;;;9.32;48.17
22000;BME280;11164;48.818;2.322;2023-02-12T01:00:25;102745.25;;;9.31;48.34
22000;BME280;11164;48.818;2.322;2023-02-12T01:02:51;102744.13;;;9.24;48.60
22000;BME280;11164;48.818;2.322;2023-02-12T01:05:16;102744.56;;;9.29;48.17
22000;BME280;11164;48.818;2.322;2023-02-12T01:07:42;102749.44;;;9.14;48.71
22000;BME280;11164;48.818;2.322;2023-02-12T01:10:08;102746.75;;;9.14;48.68
22000;BME280;11164;48.818;2.322;2023-02-12T01:12:33;102741.53;;;9.12;48.65
22000;BME280;11164;48.818;2.322;2023-02-12T01:14:59;102753.47;;;9.19;48.33
22000;BME280;11164;48.818;2.322;2023-02-12T01:17:25;102739.31;;;9.27;48.37
22000;BME280;11164;48.818;2.322;2023-02-12T01:19:50;102747.44;;;9.37;48.03
22000;BME280;11164;48.818;2.322;2023-02-12T01:22:16;102739.25;;;9.17;48.41
22000;BME280;11164;48.818;2.322;2023-02-12T01:24:41;102747.19;;;9.09;48.43
22000;BME280;11164;48.818;2.322;2023-02-12T01:27:07;102738.56;;;9.15;48.51
22000;BME280;11164;48.818;2.322;2023-02-12T01:29:32;102738.28;;;9.18;48.20
22000;BME280;11164;48.818;2.322;2023-02-12T01:31:58;102737.88;;;9.23;48.17
22000;BME280;11164;48.818;2.322;2023-02-12T01:34:23;102743.28;;;9.23;48.17
22000;BME280;11164;48.818;2.322;2023-02-12T01:36:48;102738.69;;;9.14;48.48
22000;BME280;11164;48.818;2.322;2023-02-12T01:39:14;102745.16;;;9.02;48.65
22000;BME280;11164;48.818;2.322;2023-02-12T01:41:42;102744.50;;;9.19;48.36
22000;BME280;11164;48.818;2.322;2023-02-12T01:44:14;102740.44;;;9.25;48.10
22000;BME280;11164;48.818;2.322;2023-02-12T01:46:42;102749.28;;;9.36;47.80
22000;BME280;11164;48.818;2.322;2023-02-12T01:49:13;102736.09;;;9.33;47.70
22000;BME280;11164;48.818;2.322;2023-02-12T01:51:41;102730.53;;;9.25;48.10
22000;BME280;11164;48.818;2.322;2023-02-12T01:54:09;102740.53;;;9.13;48.88
22000;BME280;11164;48.818;2.322;2023-02-12T01:56:35;102739.19;;;8.88;49.24
22000;BME280;11164;48.818;2.322;2023-02-12T01:59:02;102738.50;;;8.96;48.98
22000;BME280;11164;48.818;2.322;2023-02-12T02:01:30;102731.06;;;9.19;48.14
22000;BME280;11164;48.818;2.322;2023-02-12T02:04:00;102720.88;;;9.23;48.20
22000;BME280;11164;48.818;2.322;2023-02-12T02:07:02;102724.28;;;9.25;48.88
22000;BME280;11164;48.818;2.322;2023-02-12T02:09:30;102732.81;;;9.30;47.97
22000;BME280;11164;48.818;2.322;2023-02-12T02:11:57;102717.25;;;9.33;47.80
22000;BME280;11164;48.818;2.322;2023-02-12T02:14:42;102722.03;;;9.30;48.13
22000;BME280;11164;48.818;2.322;2023-02-12T02:30:59;102724.38;;;9.44;47.64
22000;BME280;11164;48.818;2.322;2023-02-12T02:33:35;102717.13;;;9.35;47.96
22000;BME280;11164;48.818;2.322;2023-02-12T02:41:55;102723.63;;;9.32;48.22
22000;BME280;11164;48.818;2.322;2023-02-12T02:44:49;102706.34;;;9.35;47.99
22000;BME280;11164;48.818;2.322;2023-02-12T02:47:16;102701.84;;;9.65;48.20
22000;BME280;11164;48.818;2.322;2023-02-12T02:49:49;102708.50;;;9.51;47.12
22000;BME280;11164;48.818;2.322;2023-02-12T02:52:20;102702.69;;;9.46;47.50
22000;BME280;11164;48.818;2.322;2023-02-12T02:54:49;102701.97;;;9.53;47.35
22000;BME280;11164;48.818;2.322;2023-02-12T02:57:21;102702.53;;;9.57;47.29
22000;BME280;11164;48.818;2.322;2023-02-12T02:59:54;102702.84;;;9.64;47.06
22000;BME280;11164;48.818;2.322;2023-02-12T03:02:25;102705.38;;;9.65;47.22
22000;BME280;11164;48.818;2.322;2023-02-12T03:05:03;102704.81;;;9.62;47.12
22000;BME280;11164;48.818;2.322;2023-02-12T03:07:35;102711.34;;;9.69;47.10
22000;BME280;11164;48.818;2.322;2023-02-12T03:12:33;102702.41;;;9.78;46.87
22000;BME280;11164;48.818;2.322;2023-02-12T03:15:07;102691.78;;;9.57;47.41
22000;BME280;11164;48.818;2.322;2023-02-12T03:17:45;102692.47;;;9.59;47.43
22000;BME280;11164;48.818;2.322;2023-02-12T03:20:23;102692.63;;;9.77;47.12
22000;BME280;11164;48.818;2.322;2023-02-12T03:22:57;102695.19;;;9.79;47.03
22000;BME280;11164;48.818;2.322;2023-02-12T03:25:32;102696.91;;;9.70;47.35
22000;BME280;11164;48.818;2.322;2023-02-12T03:28:13;102690.94;;;9.76;47.03
22000;BME280;11164;48.818;2.322;2023-02-12T03:36:25;102683.84;;;9.75;47.06
22000;BME280;11164;48.818;2.322;2023-02-12T03:38:56;102682.41;;;9.71;47.07
22000;BME280;11164;48.818;2.322;2023-02-12T03:41:46;102675.34;;;9.70;47.24
22000;BME280;11164;48.818;2.322;2023-02-12T03:44:26;102672.22;;;9.55;47.48
22000;BME280;11164;48.818;2.322;2023-02-12T03:47:26;102680.88;;;9.68;47.16
22000;BME280;11164;48.818;2.322;2023-02-12T03:52:30;102678.59;;;9.64;47.15
22000;BME280;11164;48.818;2.322;2023-02-12T03:54:56;102676.47;;;9.48;47.46
22000;BME280;11164;48.818;2.322;2023-02-12T03:57:24;102672.94;;;9.47;47.48
22000;BME280;11164;48.818;2.322;2023-02-12T03:59:55;102669.66;;;9.63;47.37
22000;BME280;11164;48.818;2.322;2023-02-12T04:02:20;102676.75;;;9.64;47.42
22000;BME280;11164;48.818;2.322;2023-02-12T04:04:46;102680.44;;;9.63;47.06
22000;BME280;11164;48.818;2.322;2023-02-12T04:07:13;102678.31;;;9.57;47.22
22000;BME280;11164;48.818;2.322;2023-02-12T04:09:39;102672.50;;;9.62;47.43
22000;BME280;11164;48.818;2.322;2023-02-12T04:12:38;102676.47;;;9.58;47.49
22000;BME280;11164;48.818;2.322;2023-02-12T04:23:17;102682.44;;;9.61;47.37
22000;BME280;11164;48.818;2.322;2023-02-12T04:34:17;102676.38;;;9.18;48.25
22000;BME280;11164;48.818;2.322;2023-02-12T04:37:11;102680.09;;;9.27;48.16
22000;BME280;11164;48.818;2.322;2023-02-12T04:39:41;102679.94;;;9.29;47.82
22000;BME280;11164;48.818;2.322;2023-02-12T04:42:07;102683.63;;;9.28;47.89
22000;BME280;11164;48.818;2.322;2023-02-12T04:44:37;102684.09;;;9.33;47.64
22000;BME280;11164;48.818;2.322;2023-02-12T04:47:03;102690.28;;;9.24;47.92
22000;BME280;11164;48.818;2.322;2023-02-12T04:49:28;102688.03;;;9.29;47.68
22000;BME280;11164;48.818;2.322;2023-02-12T04:51:54;102690.97;;;9.16;47.70
22000;BME280;11164;48.818;2.322;2023-02-12T04:54:20;102687.72;;;9.12;47.83
22000;BME280;11164;48.818;2.322;2023-02-12T04:56:46;102680.78;;;9.19;47.64
22000;BME280;11164;48.818;2.322;2023-02-12T04:59:13;102680.91;;;9.28;47.68
22000;BME280;11164;48.818;2.322;2023-02-12T05:01:39;102683.03;;;9.24;47.59
22000;BME280;11164;48.818;2.322;2023-02-12T05:04:06;102683.78;;;9.26;47.48
22000;BME280;11164;48.818;2.322;2023-02-12T05:06:36;102691.13;;;9.24;47.86
22000;BME280;11164;48.818;2.322;2023-02-12T05:09:02;102682.91;;;9.26;47.83
22000;BME280;11164;48.818;2.322;2023-02-12T05:11:28;102679.50;;;9.24;47.53
22000;BME280;11164;48.818;2.322;2023-02-12T05:13:54;102675.84;;;9.25;47.62
22000;BME280;11164;48.818;2.322;2023-02-12T05:16:20;102687.19;;;9.28;47.36
22000;BME280;11164;48.818;2.322;2023-02-12T05:18:46;102673.38;;;9.12;48.10
22000;BME280;11164;48.818;2.322;2023-02-12T05:21:12;102673.13;;;9.15;47.77
22000;BME280;11164;48.818;2.322;2023-02-12T05:23:38;102676.22;;;9.10;48.04
22000;BME280;11164;48.818;2.322;2023-02-12T05:26:07;102677.34;;;9.17;47.50
22000;BME280;11164;48.818;2.322;2023-02-12T05:28:33;102672.72;;;9.29;47.35
22000;BME280;11164;48.818;2.322;2023-02-12T05:31:00;102672.56;;;9.21;47.59
22000;BME280;11164;48.818;2.322;2023-02-12T05:33:25;102677.25;;;9.29;47.45
22000;BME280;11164;48.818;2.322;2023-02-12T05:35:51;102673.75;;;9.38;47.27
22000;BME280;11164;48.818;2.322;2023-02-12T05:38:17;102673.63;;;9.40;47.23
22000;BME280;11164;48.818;2.322;2023-02-12T05:40:43;102675.31;;;9.41;47.16
22000;BME280;11164;48.818;2.322;2023-02-12T05:43:08;102675.06;;;9.44;47.15
22000;BME280;11164;48.818;2.322;2023-02-12T05:45:33;102669.78;;;9.52;47.12
22000;BME280;11164;48.818;2.322;2023-02-12T05:47:59;102672.78;;;9.39;47.45
22000;BME280;11164;48.818;2.322;2023-02-12T05:50:24;102667.53;;;9.47;47.27
22000;BME280;11164;48.818;2.322;2023-02-12T05:52:50;102666.25;;;9.51;47.23
22000;BME280;11164;48.818;2.322;2023-02-12T05:55:15;102671.78;;;9.50;47.09
22000;BME280;11164;48.818;2.322;2023-02-12T05:57:40;102669.78;;;9.32;47.60
22000;BME280;11164;48.818;2.322;2023-02-12T06:00:09;102674.19;;;9.33;47.59
22000;BME280;11164;48.818;2.322;2023-02-12T06:02:35;102670.34;;;9.36;47.30
22000;BME280;11164;48.818;2.322;2023-02-12T06:05:01;102663.34;;;9.24;47.77
22000;BME280;11164;48.818;2.322;2023-02-12T06:07:26;102669.88;;;9.21;47.52
22000;BME280;11164;48.818;2.322;2023-02-12T06:09:51;102666.19;;;9.22;47.38
22000;BME280;11164;48.818;2.322;2023-02-12T06:12:17;102664.19;;;9.24;47.47
22000;BME280;11164;48.818;2.322;2023-02-12T06:14:42;102661.66;;;9.23;47.56
22000;BME280;11164;48.818;2.322;2023-02-12T06:17:08;102667.59;;;9.16;47.49
22000;BME280;11164;48.818;2.322;2023-02-12T06:19:33;102659.38;;;9.18;47.38
22000;BME280;11164;48.818;2.322;2023-02-12T06:21:58;102660.38;;;9.07;47.80
22000;BME280;11164;48.818;2.322;2023-02-12T06:24:24;102655.13;;;9.06;47.52
22000;BME280;11164;48.818;2.322;2023-02-12T06:26:50;102663.03;;;8.97;47.82
22000;BME280;11164;48.818;2.322;2023-02-12T06:29:18;102660.78;;;9.03;47.52
22000;BME280;11164;48.818;2.322;2023-02-12T06:31:44;102654.09;;;9.07;47.44
22000;BME280;11164;48.818;2.322;2023-02-12T06:34:11;102660.91;;;9.01;47.79
22000;BME280;11164;48.818;2.322;2023-02-12T06:36:39;102661.31;;;8.96;47.73
22000;BME280;11164;48.818;2.322;2023-02-12T06:39:05;102665.97;;;8.94;47.87
22000;BME280;11164;48.818;2.322;2023-02-12T06:41:30;102664.00;;;8.96;47.68
22000;BME280;11164;48.818;2.322;2023-02-12T06:43:55;102659.66;;;9.15;47.37
22000;BME280;11164;48.818;2.322;2023-02-12T06:46:21;102651.44;;;9.16;47.13
22000;BME280;11164;48.818;2.322;2023-02-12T06:48:47;102655.81;;;9.08;47.47
22000;BME280;11164;48.818;2.322;2023-02-12T06:51:15;102664.91;;;9.16;47.44
22000;BME280;11164;48.818;2.322;2023-02-12T06:53:42;102669.44;;;9.16;47.29
22000;BME280;11164;48.818;2.322;2023-02-12T06:56:10;102666.19;;;9.22;47.02
22000;BME280;11164;48.818;2.322;2023-02-12T06:58:38;102665.06;;;9.25;47.10
22000;BME280;11164;48.818;2.322;2023-02-12T07:01:17;102685.78;;;9.34;46.93
22000;BME280;11164;48.818;2.322;2023-02-12T07:03:47;102680.97;;;9.37;46.97
22000;BME280;11164;48.818;2.322;2023-02-12T07:06:12;102681.53;;;9.31;47.15
22000;BME280;11164;48.818;2.322;2023-02-12T07:08:38;102678.81;;;9.22;47.52
22000;BME280;11164;48.818;2.322;2023-02-12T07:11:04;102672.13;;;9.16;47.48
22000;BME280;11164;48.818;2.322;2023-02-12T07:13:29;102687.44;;;9.25;47.31
22000;BME280;11164;48.818;2.322;2023-02-12T07:15:55;102692.41;;;9.20;47.45
22000;BME280;11164;48.818;2.322;2023-02-12T07:18:20;102682.41;;;9.32;47.21
22000;BME280;11164;48.818;2.322;2023-02-12T07:20:45;102693.53;;;9.27;47.37
22000;BME280;11164;48.818;2.322;2023-02-12T07:23:11;102695.00;;;9.31;47.45
22000;BME280;11164;48.818;2.322;2023-02-12T07:25:37;102694.88;;;9.43;47.07
22000;BME280;11164;48.818;2.322;2023-02-12T07:28:02;102699.56;;;9.50;47.06
22000;BME280;11164;48.818;2.322;2023-02-12T07:30:27;102699.41;;;9.32;47.50
22000;BME280;11164;48.818;2.322;2023-02-12T07:32:53;102703.94;;;9.32;47.32
22000;BME280;11164;48.818;2.322;2023-02-12T07:35:18;102704.84;;;9.11;48.04
22000;BME280;11164;48.818;2.322;2023-02-12T07:37:44;102697.34;;;9.15;47.86
22000;BME280;11164;48.818;2.322;2023-02-12T07:40:09;102692.97;;;9.24;47.49
22000;BME280;11164;48.818;2.322;2023-02-12T07:42:34;102697.38;;;9.25;47.37
22000;BME280;11164;48.818;2.322;2023-02-12T07:45:00;102697.41;;;9.34;47.49
22000;BME280;11164;48.818;2.322;2023-02-12T07:47:25;102695.78;;;9.22;47.67
22000;BME280;11164;48.818;2.322;2023-02-12T07:49:50;102700.38;;;9.31;47.61
22000;BME280;11164;48.818;2.322;2023-02-12T07:52:16;102700.13;;;9.44;47.10
22000;BME280;11164;48.818;2.322;2023-02-12T07:54:41;102700.28;;;9.52;46.91
22000;BME280;11164;48.818;2.322;2023-02-12T07:57:06;102696.59;;;9.63;46.97
22000;BME280;11164;48.818;2.322;2023-02-12T07:59:32;102696.44;;;9.74;46.73
22000;BME280;11164;48.818;2.322;2023-02-12T08:01:57;102709.94;;;9.74;46.58
22000;BME280;11164;48.818;2.322;2023-02-12T08:04:25;102699.44;;;9.71;46.75
22000;BME280;11164;48.818;2.322;2023-02-12T08:06:52;102703.97;;;9.61;47.01
22000;BME280;11164;48.818;2.322;2023-02-12T08:09:21;102696.88;;;9.60;47.44
22000;BME280;11164;48.818;2.322;2023-02-12T08:11:47;102694.88;;;9.62;47.00
22000;BME280;11164;48.818;2.322;2023-02-12T08:14:15;102695.03;;;9.70;46.87
22000;BME280;11164;48.818;2.322;2023-02-12T08:16:42;102705.97;;;9.79;46.98
22000;BME280;11164;48.818;2.322;2023-02-12T08:19:08;102700.44;;;9.80;46.94
22000;BME280;11164;48.818;2.322;2023-02-12T08:21:33;102696.34;;;9.66;47.09
22000;BME280;11164;48.818;2.322;2023-02-12T08:23:59;102702.41;;;9.78;46.91
22000;BME280;11164;48.818;2.322;2023-02-12T08:26:31;102704.81;;;9.81;46.98
22000;BME280;11164;48.818;2.322;2023-02-12T08:29:12;102705.25;;;9.86;46.84
22000;BME280;11164;48.818;2.322;2023-02-12T08:31:40;102698.00;;;9.87;46.76
22000;BME280;11164;48.818;2.322;2023-02-12T08:34:06;102714.91;;;9.79;46.93
22000;BME280;11164;48.818;2.322;2023-02-12T08:36:39;102715.16;;;9.76;47.31
22000;BME280;11164;48.818;2.322;2023-02-12T08:39:06;102709.66;;;9.87;47.03
22000;BME280;11164;48.818;2.322;2023-02-12T08:41:32;102717.59;;;9.79;47.09
22000;BME280;11164;48.818;2.322;2023-02-12T08:44:00;102717.84;;;9.96;47.05
22000;BME280;11164;48.818;2.322;2023-02-12T08:46:29;102715.31;;;10.04;46.57
22000;BME280;11164;48.818;2.322;2023-02-12T08:48:57;102719.28;;;9.90;47.10
22000;BME280;11164;48.818;2.322;2023-02-12T08:51:28;102721.84;;;9.91;46.81
22000;BME280;11164;48.818;2.322;2023-02-12T08:53:59;102731.50;;;9.94;47.00
22000;BME280;11164;48.818;2.322;2023-02-12T08:56:26;102719.00;;;10.12;46.72
22000;BME280;11164;48.818;2.322;2023-02-12T08:58:55;102720.84;;;10.22;46.58
22000;BME280;11164;48.818;2.322;2023-02-12T09:01:23;102723.41;;;10.13;46.80
22000;BME280;11164;48.818;2.322;2023-02-12T09:03:49;102719.56;;;10.06;46.92
22000;BME280;11164;48.818;2.322;2023-02-12T09:06:17;102717.03;;;10.05;46.96
22000;BME280;11164;48.818;2.322;2023-02-12T09:08:43;102723.53;;;10.02;47.00
22000;BME280;11164;48.818;2.322;2023-02-12T09:11:12;102726.78;;;10.06;46.94
22000;BME280;11164;48.818;2.322;2023-02-12T09:13:38;102709.63;;;10.17;46.54
22000;BME280;11164;48.818;2.322;2023-02-12T09:16:05;102722.53;;;10.23;46.67
22000;BME280;11164;48.818;2.322;2023-02-12T09:18:31;102714.00;;;10.27;46.62
22000;BME280;11164;48.818;2.322;2023-02-12T09:21:05;102717.00;;;10.15;46.69
22000;BME280;11164;48.818;2.322;2023-02-12T09:23:31;102717.41;;;10.20;46.64
22000;BME280;11164;48.818;2.322;2023-02-12T09:25:57;102716.44;;;10.21;46.62
22000;BME280;11164;48.818;2.322;2023-02-12T09:28:23;102716.44;;;10.21;46.63
22000;BME280;11164;48.818;2.322;2023-02-12T09:30:48;102712.59;;;10.23;46.58
22000;BME280;11164;48.818;2.322;2023-02-12T09:33:13;102715.28;;;10.33;46.40
22000;BME280;11164;48.818;2.322;2023-02-12T09:35:39;102706.94;;;10.17;46.60
22000;BME280;11164;48.818;2.322;2023-02-12T09:38:05;102711.88;;;10.21;46.70
22000;BME280;11164;48.818;2.322;2023-02-12T09:46:57;102703.94;;;10.29;45.95
22000;BME280;11164;48.818;2.322;2023-02-12T09:49:52;102695.94;;;10.47;45.45
22000;BME280;11164;48.818;2.322;2023-02-12T09:52:26;102702.34;;;10.46;46.22
22000;BME280;11164;48.818;2.322;2023-02-12T09:54:52;102700.59;;;10.55;46.24
22000;BME280;11164;48.818;2.322;2023-02-12T10:00:14;102694.47;;;10.73;44.73
22000;BME280;11164;48.818;2.322;2023-02-12T10:02:40;102700.56;;;10.75;46.01
22000;BME280;11164;48.818;2.322;2023-02-12T10:05:18;102686.94;;;10.76;45.68
22000;BME280;11164;48.818;2.322;2023-02-12T10:08:25;102691.00;;;10.80;45.89
22000;BME280;11164;48.818;2.322;2023-02-12T10:16:46;102684.34;;;11.12;45.10
22000;BME280;11164;48.818;2.322;2023-02-12T10:19:24;102691.22;;;11.42;44.98
22000;BME280;11164;48.818;2.322;2023-02-12T10:22:17;102689.47;;;11.51;44.08
22000;BME280;11164;48.818;2.322;2023-02-12T10:27:15;102699.72;;;11.48;45.28
22000;BME280;11164;48.818;2.322;2023-02-12T10:29:44;102695.50;;;11.45;45.36
22000;BME280;11164;48.818;2.322;2023-02-12T10:32:24;102691.47;;;11.31;43.41
22000;BME280;11164;48.818;2.322;2023-02-12T10:34:51;102687.72;;;11.14;45.79
22000;BME280;11164;48.818;2.322;2023-02-12T10:40:30;102691.13;;;11.16;44.67
22000;BME280;11164;48.818;2.322;2023-02-12T10:42:59;102689.78;;;11.02;45.86
22000;BME280;11164;48.818;2.322;2023-02-12T10:45:31;102689.13;;;11.18;45.64
22000;BME280;11164;48.818;2.322;2023-02-12T10:48:10;102690.00;;;11.37;44.82
22000;BME280;11164;48.818;2.322;2023-02-12T10:53:41;102689.53;;;11.41;44.99
22000;BME280;11164;48.818;2.322;2023-02-12T10:58:40;102688.53;;;11.60;45.01
22000;BME280;11164;48.818;2.322;2023-02-12T11:01:15;102682.38;;;11.50;44.30
22000;BME280;11164;48.818;2.322;2023-02-12T11:03:41;102685.34;;;11.29;45.25
22000;BME280;11164;48.818;2.322;2023-02-12T11:06:12;102680.81;;;11.30;45.20
22000;BME280;11164;48.818;2.322;2023-02-12T11:08:38;102677.63;;;11.34;45.31
22000;BME280;11164;48.818;2.322;2023-02-12T11:11:09;102678.19;;;11.38;45.19
22000;BME280;11164;48.818;2.322;2023-02-12T11:13:36;102679.72;;;11.22;45.29
22000;BME280;11164;48.818;2.322;2023-02-12T11:16:03;102677.78;;;11.33;45.07
22000;BME280;11164;48.818;2.322;2023-02-12T11:18:32;102680.47;;;11.15;45.21
22000;BME280;11164;48.818;2.322;2023-02-12T11:21:07;102673.94;;;11.17;45.36
22000;BME280;11164;48.818;2.322;2023-02-12T11:26:04;102676.97;;;11.04;45.39
22000;BME280;11164;48.818;2.322;2023-02-12T11:28:32;102670.47;;;11.25;44.83
22000;BME280;11164;48.818;2.322;2023-02-12T11:33:37;102654.50;;;11.50;44.27
22000;BME280;11164;48.818;2.322;2023-02-12T11:36:10;102658.44;;;11.37;44.65
22000;BME280;11164;48.818;2.322;2023-02-12T11:38:49;102654.78;;;11.29;43.91
22000;BME280;11164;48.818;2.322;2023-02-12T11:43:50;102653.19;;;11.36;44.62
22000;BME280;11164;48.818;2.322;2023-02-12T11:46:24;102649.63;;;11.53;44.25
22000;BME280;11164;48.818;2.322;2023-02-12T11:48:50;102642.84;;;11.85;41.72
22000;BME280;11164;48.818;2.322;2023-02-12T11:51:20;102638.69;;;11.73;43.88
22000;BME280;11164;48.818;2.322;2023-02-12T11:53:51;102648.00;;;11.60;43.87
22000;BME280;11164;48.818;2.322;2023-02-12T11:56:17;102637.28;;;11.69;44.10
22000;BME280;11164;48.818;2.322;2023-02-12T11:58:45;102635.41;;;11.69;44.05
22000;BME280;11164;48.818;2.322;2023-02-12T12:01:28;102640.63;;;11.80;43.43
22000;BME280;11164;48.818;2.322;2023-02-12T12:04:07;102643.50;;;12.05;43.31
22000;BME280;11164;48.818;2.322;2023-02-12T12:06:45;102633.13;;;12.18;43.57
22000;BME280;11164;48.818;2.322;2023-02-12T12:09:22;102629.38;;;12.19;43.35
22000;BME280;11164;48.818;2.322;2023-02-12T12:14:31;102626.91;;;12.00;43.51
22000;BME280;11164;48.818;2.322;2023-02-12T12:17:11;102626.50;;;11.87;43.83
22000;BME280;11164;48.818;2.322;2023-02-12T12:25:07;102614.97;;;11.67;43.73
22000;BME280;11164;48.818;2.322;2023-02-12T12:27:49;102614.63;;;11.43;43.98
22000;BME280;11164;48.818;2.322;2023-02-12T12:33:32;102600.16;;;11.89;43.39
22000;BME280;11164;48.818;2.322;2023-02-12T12:45:09;102587.41;;;11.81;42.87
22000;BME280;11164;48.818;2.322;2023-02-12T13:01:48;102587.16;;;11.92;42.25
22000;BME280;11164;48.818;2.322;2023-02-12T13:15:37;102581.25;;;11.97;42.73
22000;BME280;11164;48.818;2.322;2023-02-12T13:26:25;102557.66;;;12.07;42.80
22000;BME280;11164;48.818;2.322;2023-02-12T13:29:04;102569.00;;;11.85;43.61
22000;BME280;11164;48.818;2.322;2023-02-12T13:31:35;102555.91;;;11.72;43.47
22000;BME280;11164;48.818;2.322;2023-02-12T13:34:06;102565.41;;;11.58;44.00
22000;BME280;11164;48.818;2.322;2023-02-12T13:36:35;102566.72;;;11.72;43.74
22000;BME280;11164;48.818;2.322;2023-02-12T13:39:11;102561.75;;;11.67;43.25
22000;BME280;11164;48.818;2.322;2023-02-12T13:41:45;102560.25;;;11.65;43.40
22000;BME280;11164;48.818;2.322;2023-02-12T13:44:19;102563.50;;;11.50;44.03
22000;BME280;11164;48.818;2.322;2023-02-12T13:47:01;102557.81;;;11.79;43.31
22000;BME280;11164;48.818;2.322;2023-02-12T13:57:33;102543.19;;;12.16;42.81
22000;BME280;11164;48.818;2.322;2023-02-12T13:59:58;102551.41;;;12.07;42.92
22000;BME280;11164;48.818;2.322;2023-02-12T14:05:04;102538.22;;;12.04;43.13
22000;BME280;11164;48.818;2.322;2023-02-12T14:07:42;102532.78;;;12.04;43.18
22000;BME280;11164;48.818;2.322;2023-02-12T14:10:19;102535.66;;;12.02;42.87
22000;BME280;11164;48.818;2.322;2023-02-12T14:12:45;102533.63;;;11.96;42.99
22000;BME280;11164;48.818;2.322;2023-02-12T14:15:33;102537.56;;;12.10;41.46
22000;BME280;11164;48.818;2.322;2023-02-12T14:23:34;102530.25;;;12.02;42.89
22000;BME280;11164;48.818;2.322;2023-02-12T14:26:10;102528.69;;;11.91;42.88
22000;BME280;11164;48.818;2.322;2023-02-12T14:33:43;102519.16;;;11.79;43.00
22000;BME280;11164;48.818;2.322;2023-02-12T14:46:48;102506.53;;;11.88;42.70
22000;BME280;11164;48.818;2.322;2023-02-12T14:49:27;102508.91;;;11.65;43.08
22000;BME280;11164;48.818;2.322;2023-02-12T14:54:51;102506.06;;;11.92;42.37
22000;BME280;11164;48.818;2.322;2023-02-12T14:57:25;102498.16;;;11.99;42.67
22000;BME280;11164;48.818;2.322;2023-02-12T14:59:54;102501.75;;;12.16;42.24
22000;BME280;11164;48.818;2.322;2023-02-12T15:02:33;102506.41;;;11.97;41.44
22000;BME280;11164;48.818;2.322;2023-02-12T15:05:14;102499.84;;;12.00;42.10
22000;BME280;11164;48.818;2.322;2023-02-12T15:07:49;102482.47;;;12.03;42.32
22000;BME280;11164;48.818;2.322;2023-02-12T15:10:21;102491.78;;;12.08;42.16
22000;BME280;11164;48.818;2.322;2023-02-12T15:12:56;102482.97;;;12.06;42.52
22000;BME280;11164;48.818;2.322;2023-02-12T15:15:30;102478.50;;;12.23;42.22
22000;BME280;11164;48.818;2.322;2023-02-12T15:18:08;102472.25;;;12.31;41.41
22000;BME280;11164;48.818;2.322;2023-02-12T15:20:53;102474.44;;;12.27;41.70
22000;BME280;11164;48.818;2.322;2023-02-12T15:23:41;102472.84;;;12.08;42.14
22000;BME280;11164;48.818;2.322;2023-02-12T15:26:15;102475.50;;;12.00;42.00
22000;BME280;11164;48.818;2.322;2023-02-12T15:28:45;102473.63;;;11.92;42.50
22000;BME280;11164;48.818;2.322;2023-02-12T15:31:14;102473.19;;;12.13;42.13
22000;BME280;11164;48.818;2.322;2023-02-12T15:33:45;102469.50;;;12.14;41.56
22000;BME280;11164;48.818;2.322;2023-02-12T15:36:16;102465.94;;;12.14;41.87
22000;BME280;11164;48.818;2.322;2023-02-12T15:38:43;102462.06;;;12.16;41.54
22000;BME280;11164;48.818;2.322;2023-02-12T15:41:43;102468.94;;;12.11;41.22
22000;BME280;11164;48.818;2.322;2023-02-12T15:44:30;102468.94;;;12.11;40.82
22000;BME280;11164;48.818;2.322;2023-02-12T15:47:08;102470.69;;;12.20;41.35
22000;BME280;11164;48.818;2.322;2023-02-12T15:49:36;102462.06;;;12.16;41.30
22000;BME280;11164;48.818;2.322;2023-02-12T15:52:28;102458.69;;;12.23;41.06
22000;BME280;11164;48.818;2.322;2023-02-12T15:54:51;102465.91;;;12.56;40.33
22000;BME280;11164;48.818;2.322;2023-02-12T15:57:22;102469.56;;;12.39;40.68
22000;BME280;11164;48.818;2.322;2023-02-12T15:59:53;102466.16;;;12.29;40.71